KSPF/SPF METAR and TAF weather

Enter ICAO airport designator
Station Type Date Time Source
KSPF METAR 2024/07/24 12:35 UTC NOAA

KSPF 241235Z AUTO 21007KT 5SM HZ CLR 19/09 A3016 RMK AO2


Station Type Date Time Source
KSPF Decoded METAR 2024/07/24 12:35 UTC NOAA

Spearfish / Clyde Ice, SD, United States (KSPF) 44-29N 103-47W
Jul 24, 2024 - 08:35 AM EDT / 2024.07.24 1235 UTC
Wind: from the SSW (210 degrees) at 8 MPH (7 KT):0
Visibility: 5 mile(s):0
Sky conditions: clear
Weather: haze
Temperature: 66 F (19 C)
Dew Point: 48 F (9 C)
Relative Humidity: 52%
Pressure (altimeter): 30.16 in. Hg (1021 hPa)
ob: KSPF 241235Z AUTO 21007KT 5SM HZ CLR 19/09 A3016 RMK AO2
cycle: 12

Station Type Date Time Source
KSPF TAF UTC NOAA

Error!

Example: see airport list